sensor_id;sensor_type;location;lat;lon;timestamp;pressure;altitude;pressure_sealevel;temperature;humidity
73651;BME280;61944;52.538;6.108;2024-03-02T00:01:06;99820.50;;;8.12;100.00
73651;BME280;61944;52.538;6.108;2024-03-02T00:03:32;99825.25;;;8.11;100.00
73651;BME280;61944;52.538;6.108;2024-03-02T00:05:58;99831.56;;;8.01;100.00
73651;BME280;61944;52.538;6.108;2024-03-02T00:08:25;99823.59;;;8.03;100.00
73651;BME280;61944;52.538;6.108;2024-03-02T00:11:00;99820.91;;;8.14;100.00
73651;BME280;61944;52.538;6.108;2024-03-02T00:13:28;99815.31;;;8.14;100.00
73651;BME280;61944;52.538;6.108;2024-03-02T00:15:56;99809.69;;;8.07;100.00
73651;BME280;61944;52.538;6.108;2024-03-02T00:18:35;99808.50;;;8.08;100.00
73651;BME280;61944;52.538;6.108;2024-03-02T00:21:01;99802.09;;;8.04;100.00
73651;BME280;61944;52.538;6.108;2024-03-02T00:23:30;99798.56;;;8.10;100.00
73651;BME280;61944;52.538;6.108;2024-03-02T00:25:59;99788.97;;;8.04;100.00
73651;BME280;61944;52.538;6.108;2024-03-02T00:28:35;99780.63;;;8.08;100.00
73651;BME280;61944;52.538;6.108;2024-03-02T00:31:04;99780.22;;;8.06;100.00
73651;BME280;61944;52.538;6.108;2024-03-02T00:33:35;99783.00;;;8.06;100.00
73651;BME280;61944;52.538;6.108;2024-03-02T00:36:04;99782.59;;;8.07;100.00
73651;BME280;61944;52.538;6.108;2024-03-02T00:38:31;99780.22;;;8.09;100.00
73651;BME280;61944;52.538;6.108;2024-03-02T00:41:03;99775.81;;;8.05;100.00
73651;BME280;61944;52.538;6.108;2024-03-02T00:43:53;99779.03;;;8.07;100.00
73651;BME280;61944;52.538;6.108;2024-03-02T00:46:21;99779.03;;;8.07;100.00
73651;BME280;61944;52.538;6.108;2024-03-02T00:51:20;99773.00;;;7.98;100.00
73651;BME280;61944;52.538;6.108;2024-03-02T00:53:45;99777.09;;;8.14;100.00
73651;BME280;61944;52.538;6.108;2024-03-02T00:56:11;99775.47;;;8.10;100.00
73651;BME280;61944;52.538;6.108;2024-03-02T00:58:37;99778.66;;;8.08;100.00
73651;BME280;61944;52.538;6.108;2024-03-02T01:01:03;99774.34;;;8.18;100.00
73651;BME280;61944;52.538;6.108;2024-03-02T01:03:28;99779.50;;;8.16;100.00
73651;BME280;61944;52.538;6.108;2024-03-02T01:05:53;99789.88;;;8.19;100.00
73651;BME280;61944;52.538;6.108;2024-03-02T01:08:19;99786.63;;;8.13;100.00
73651;BME280;61944;52.538;6.108;2024-03-02T01:10:44;99793.44;;;8.16;100.00
73651;BME280;61944;52.538;6.108;2024-03-02T01:13:09;99785.53;;;8.25;100.00
73651;BME280;61944;52.538;6.108;2024-03-02T01:15:35;99783.97;;;8.31;100.00
73651;BME280;61944;52.538;6.108;2024-03-02T01:18:00;99784.78;;;8.35;100.00
73651;BME280;61944;52.538;6.108;2024-03-02T01:20:25;99788.84;;;8.42;100.00
73651;BME280;61944;52.538;6.108;2024-03-02T01:22:51;99792.78;;;8.37;100.00
73651;BME280;61944;52.538;6.108;2024-03-02T01:25:17;99791.53;;;8.34;100.00
73651;BME280;61944;52.538;6.108;2024-03-02T01:27:42;99777.25;;;8.40;100.00
73651;BME280;61944;52.538;6.108;2024-03-02T01:30:08;99775.63;;;8.39;100.00
73651;BME280;61944;52.538;6.108;2024-03-02T01:32:33;99780.09;;;8.43;100.00
73651;BME280;61944;52.538;6.108;2024-03-02T01:34:59;99788.09;;;8.52;100.00
73651;BME280;61944;52.538;6.108;2024-03-02T01:37:24;99783.66;;;8.47;100.00
73651;BME280;61944;52.538;6.108;2024-03-02T01:39:50;99790.88;;;8.52;100.00
73651;BME280;61944;52.538;6.108;2024-03-02T01:42:15;99785.34;;;8.59;100.00
73651;BME280;61944;52.538;6.108;2024-03-02T01:44:40;99798.47;;;8.55;100.00
73651;BME280;61944;52.538;6.108;2024-03-02T01:47:06;99795.69;;;8.55;100.00
73651;BME280;61944;52.538;6.108;2024-03-02T01:49:32;99804.00;;;8.51;100.00
73651;BME280;61944;52.538;6.108;2024-03-02T01:51:59;99810.00;;;8.50;100.00
73651;BME280;61944;52.538;6.108;2024-03-02T01:54:24;99821.19;;;8.57;100.00
73651;BME280;61944;52.538;6.108;2024-03-02T01:56:50;99829.19;;;8.59;100.00
73651;BME280;61944;52.538;6.108;2024-03-02T01:59:16;99825.13;;;8.49;100.00
73651;BME280;61944;52.538;6.108;2024-03-02T02:01:42;99835.09;;;8.53;100.00
73651;BME280;61944;52.538;6.108;2024-03-02T02:04:07;99829.94;;;8.52;100.00
73651;BME280;61944;52.538;6.108;2024-03-02T02:06:33;99831.97;;;8.59;100.00
73651;BME280;61944;52.538;6.108;2024-03-02T02:08:58;99837.91;;;8.57;100.00
73651;BME280;61944;52.538;6.108;2024-03-02T02:11:24;99838.72;;;8.58;100.00
73651;BME280;61944;52.538;6.108;2024-03-02T02:13:50;99841.13;;;8.59;100.00
73651;BME280;61944;52.538;6.108;2024-03-02T02:16:15;99837.94;;;8.64;100.00
73651;BME280;61944;52.538;6.108;2024-03-02T02:18:40;99844.34;;;8.68;100.00
73651;BME280;61944;52.538;6.108;2024-03-02T02:21:06;99829.25;;;8.73;100.00
73651;BME280;61944;52.538;6.108;2024-03-02T02:23:31;99825.25;;;8.74;100.00
73651;BME280;61944;52.538;6.108;2024-03-02T02:25:56;99819.28;;;8.75;100.00
73651;BME280;61944;52.538;6.108;2024-03-02T02:28:22;99820.88;;;8.73;100.00
73651;BME280;61944;52.538;6.108;2024-03-02T02:30:47;99822.84;;;8.72;100.00
73651;BME280;61944;52.538;6.108;2024-03-02T02:33:12;99817.28;;;8.72;100.00
73651;BME280;61944;52.538;6.108;2024-03-02T02:35:38;99817.28;;;8.72;100.00
73651;BME280;61944;52.538;6.108;2024-03-02T02:38:04;99810.50;;;8.70;100.00
73651;BME280;61944;52.538;6.108;2024-03-02T02:40:29;99806.91;;;8.69;100.00
73651;BME280;61944;52.538;6.108;2024-03-02T02:42:56;99807.69;;;8.66;100.00
73651;BME280;61944;52.538;6.108;2024-03-02T02:45:21;99798.53;;;8.62;100.00
73651;BME280;61944;52.538;6.108;2024-03-02T02:47:47;99789.75;;;8.64;100.00
73651;BME280;61944;52.538;6.108;2024-03-02T02:50:12;99793.31;;;8.61;100.00
73651;BME280;61944;52.538;6.108;2024-03-02T02:52:39;99779.31;;;8.53;100.00
73651;BME280;61944;52.538;6.108;2024-03-02T02:55:07;99783.75;;;8.62;100.00
73651;BME280;61944;52.538;6.108;2024-03-02T02:57:34;99775.38;;;8.58;100.00
73651;BME280;61944;52.538;6.108;2024-03-02T03:00:09;99784.53;;;8.55;100.00
73651;BME280;61944;52.538;6.108;2024-03-02T03:02:46;99788.47;;;8.50;100.00
73651;BME280;61944;52.538;6.108;2024-03-02T03:05:14;99793.28;;;8.53;100.00
73651;BME280;61944;52.538;6.108;2024-03-02T03:07:40;99774.91;;;8.45;100.00
73651;BME280;61944;52.538;6.108;2024-03-02T03:10:07;99790.47;;;8.53;100.00
73651;BME280;61944;52.538;6.108;2024-03-02T03:12:33;99802.81;;;8.49;100.00
73651;BME280;61944;52.538;6.108;2024-03-02T03:14:59;99797.66;;;8.51;100.00
73651;BME280;61944;52.538;6.108;2024-03-02T03:17:25;99809.59;;;8.51;100.00
73651;BME280;61944;52.538;6.108;2024-03-02T03:19:50;99808.00;;;8.50;100.00
73651;BME280;61944;52.538;6.108;2024-03-02T03:22:16;99808.38;;;8.49;100.00
73651;BME280;61944;52.538;6.108;2024-03-02T03:24:41;99796.81;;;8.43;100.00
73651;BME280;61944;52.538;6.108;2024-03-02T03:27:07;99805.97;;;8.47;100.00
73651;BME280;61944;52.538;6.108;2024-03-02T03:29:32;99821.16;;;8.50;100.00
73651;BME280;61944;52.538;6.108;2024-03-02T03:31:58;99819.94;;;8.44;100.00
73651;BME280;61944;52.538;6.108;2024-03-02T03:34:23;99807.59;;;8.48;100.00
73651;BME280;61944;52.538;6.108;2024-03-02T03:36:48;99819.50;;;8.42;100.00
73651;BME280;61944;52.538;6.108;2024-03-02T03:39:14;99815.53;;;8.43;100.00
73651;BME280;61944;52.538;6.108;2024-03-02T03:41:40;99813.16;;;8.45;100.00
73651;BME280;61944;52.538;6.108;2024-03-02T03:44:06;99812.31;;;8.41;100.00
73651;BME280;61944;52.538;6.108;2024-03-02T03:46:31;99815.47;;;8.35;100.00
73651;BME280;61944;52.538;6.108;2024-03-02T03:48:56;99823.84;;;8.39;100.00
73651;BME280;61944;52.538;6.108;2024-03-02T03:51:22;99821.06;;;8.39;100.00
73651;BME280;61944;52.538;6.108;2024-03-02T03:53:48;99816.25;;;8.36;100.00
73651;BME280;61944;52.538;6.108;2024-03-02T03:56:13;99828.19;;;8.33;100.00
73651;BME280;61944;52.538;6.108;2024-03-02T03:58:39;99820.22;;;8.31;100.00
73651;BME280;61944;52.538;6.108;2024-03-02T04:01:04;99826.59;;;8.32;100.00
73651;BME280;61944;52.538;6.108;2024-03-02T04:03:29;99829.00;;;8.33;100.00
73651;BME280;61944;52.538;6.108;2024-03-02T04:05:55;99832.16;;;8.32;100.00
73651;BME280;61944;52.538;6.108;2024-03-02T04:08:21;99834.16;;;8.31;100.00
73651;BME280;61944;52.538;6.108;2024-03-02T04:10:46;99838.94;;;8.31;100.00
73651;BME280;61944;52.538;6.108;2024-03-02T04:13:12;99849.69;;;8.29;100.00
73651;BME280;61944;52.538;6.108;2024-03-02T04:15:37;99846.06;;;8.28;100.00
73651;BME280;61944;52.538;6.108;2024-03-02T04:18:03;99853.63;;;8.24;100.00
73651;BME280;61944;52.538;6.108;2024-03-02T04:20:28;99856.09;;;8.33;100.00
73651;BME280;61944;52.538;6.108;2024-03-02T04:22:54;99858.38;;;8.24;100.00
73651;BME280;61944;52.538;6.108;2024-03-02T04:25:20;99855.22;;;8.25;100.00
73651;BME280;61944;52.538;6.108;2024-03-02T04:27:45;99850.47;;;8.29;100.00
73651;BME280;61944;52.538;6.108;2024-03-02T04:30:11;99853.97;;;8.19;100.00
73651;BME280;61944;52.538;6.108;2024-03-02T04:32:36;99842.41;;;8.17;100.00
73651;BME280;61944;52.538;6.108;2024-03-02T04:35:02;99848.78;;;8.14;100.00
73651;BME280;61944;52.538;6.108;2024-03-02T04:37:27;99863.94;;;8.20;100.00
73651;BME280;61944;52.538;6.108;2024-03-02T04:39:52;99854.84;;;8.30;100.00
73651;BME280;61944;52.538;6.108;2024-03-02T04:42:18;99862.78;;;8.28;100.00
73651;BME280;61944;52.538;6.108;2024-03-02T04:44:43;99864.72;;;8.17;100.00
73651;BME280;61944;52.538;6.108;2024-03-02T04:47:08;99862.34;;;8.19;100.00
73651;BME280;61944;52.538;6.108;2024-03-02T04:49:34;99878.31;;;8.22;100.00
73651;BME280;61944;52.538;6.108;2024-03-02T04:51:59;99879.84;;;8.20;100.00
73651;BME280;61944;52.538;6.108;2024-03-02T04:54:24;99875.16;;;8.27;100.00
73651;BME280;61944;52.538;6.108;2024-03-02T04:56:50;99885.63;;;7.97;100.00
73651;BME280;61944;52.538;6.108;2024-03-02T04:59:16;99888.38;;;7.89;100.00
73651;BME280;61944;52.538;6.108;2024-03-02T05:01:42;99887.13;;;7.83;100.00
73651;BME280;61944;52.538;6.108;2024-03-02T05:04:08;99880.38;;;7.84;100.00
73651;BME280;61944;52.538;6.108;2024-03-02T05:06:39;99876.81;;;7.87;100.00
73651;BME280;61944;52.538;6.108;2024-03-02T05:09:06;99874.38;;;7.82;100.00
73651;BME280;61944;52.538;6.108;2024-03-02T05:11:31;99886.78;;;7.92;100.00
73651;BME280;61944;52.538;6.108;2024-03-02T05:14:03;99893.16;;;7.89;100.00
73651;BME280;61944;52.538;6.108;2024-03-02T05:16:29;99889.06;;;7.79;100.00
73651;BME280;61944;52.538;6.108;2024-03-02T05:18:54;99891.44;;;7.77;100.00
73651;BME280;61944;52.538;6.108;2024-03-02T05:21:19;99891.44;;;7.77;100.00
73651;BME280;61944;52.538;6.108;2024-03-02T05:23:45;99891.44;;;7.77;100.00
73651;BME280;61944;52.538;6.108;2024-03-02T05:26:10;99903.69;;;7.69;100.00
73651;BME280;61944;52.538;6.108;2024-03-02T05:28:38;99900.06;;;7.65;100.00
73651;BME280;61944;52.538;6.108;2024-03-02T05:31:04;99899.25;;;7.64;100.00
73651;BME280;61944;52.538;6.108;2024-03-02T05:33:29;99910.09;;;7.73;100.00
73651;BME280;61944;52.538;6.108;2024-03-02T05:35:56;99908.41;;;7.61;100.00
73651;BME280;61944;52.538;6.108;2024-03-02T05:38:22;99911.63;;;7.67;100.00
73651;BME280;61944;52.538;6.108;2024-03-02T05:40:47;99920.66;;;7.57;100.00
73651;BME280;61944;52.538;6.108;2024-03-02T05:43:13;99911.09;;;7.54;100.00
73651;BME280;61944;52.538;6.108;2024-03-02T05:45:38;99914.28;;;7.56;100.00
73651;BME280;61944;52.538;6.108;2024-03-02T05:48:06;99918.00;;;7.33;100.00
73651;BME280;61944;52.538;6.108;2024-03-02T05:50:32;99926.78;;;7.36;100.00
73651;BME280;61944;52.538;6.108;2024-03-02T05:52:57;99910.97;;;7.43;100.00
73651;BME280;61944;52.538;6.108;2024-03-02T05:55:24;99913.31;;;7.41;100.00
73651;BME280;61944;52.538;6.108;2024-03-02T05:57:49;99912.53;;;7.41;100.00
73651;BME280;61944;52.538;6.108;2024-03-02T06:00:28;99913.03;;;7.16;100.00
73651;BME280;61944;52.538;6.108;2024-03-02T06:02:53;99915.63;;;7.32;100.00
73651;BME280;61944;52.538;6.108;2024-03-02T06:05:19;99920.50;;;7.42;100.00
73651;BME280;61944;52.538;6.108;2024-03-02T06:07:44;99919.06;;;7.56;100.00
73651;BME280;61944;52.538;6.108;2024-03-02T06:10:09;99922.28;;;7.24;100.00
73651;BME280;61944;52.538;6.108;2024-03-02T06:12:35;99922.53;;;7.45;100.00
73651;BME280;61944;52.538;6.108;2024-03-02T06:15:00;99914.94;;;7.42;100.00
73651;BME280;61944;52.538;6.108;2024-03-02T06:17:25;99922.09;;;7.43;100.00
73651;BME280;61944;52.538;6.108;2024-03-02T06:19:51;99925.66;;;7.40;100.00
73651;BME280;61944;52.538;6.108;2024-03-02T06:22:16;99932.03;;;7.41;100.00
73651;BME280;61944;52.538;6.108;2024-03-02T06:24:41;99938.88;;;7.50;100.00
73651;BME280;61944;52.538;6.108;2024-03-02T06:27:07;99946.00;;;7.44;100.00
73651;BME280;61944;52.538;6.108;2024-03-02T06:29:33;99942.78;;;7.42;100.00
73651;BME280;61944;52.538;6.108;2024-03-02T06:32:01;99951.38;;;7.30;100.00
73651;BME280;61944;52.538;6.108;2024-03-02T06:34:26;99954.66;;;7.39;100.00
73651;BME280;61944;52.538;6.108;2024-03-02T06:36:51;99954.47;;;7.25;100.00
73651;BME280;61944;52.538;6.108;2024-03-02T06:39:17;99956.09;;;7.26;100.00
73651;BME280;61944;52.538;6.108;2024-03-02T06:41:42;99957.03;;;7.37;100.00
73651;BME280;61944;52.538;6.108;2024-03-02T06:44:08;99970.16;;;7.06;100.00
73651;BME280;61944;52.538;6.108;2024-03-02T06:46:33;99964.97;;;7.05;100.00
73651;BME280;61944;52.538;6.108;2024-03-02T06:48:58;99967.13;;;7.19;100.00
73651;BME280;61944;52.538;6.108;2024-03-02T06:51:24;99969.81;;;7.11;100.00
73651;BME280;61944;52.538;6.108;2024-03-02T06:53:49;99957.66;;;7.23;100.00
73651;BME280;61944;52.538;6.108;2024-03-02T06:56:15;99972.31;;;7.20;100.00
73651;BME280;61944;52.538;6.108;2024-03-02T06:58:40;99971.81;;;7.11;100.00
73651;BME280;61944;52.538;6.108;2024-03-02T07:01:05;99975.03;;;7.17;100.00
73651;BME280;61944;52.538;6.108;2024-03-02T07:03:31;99979.09;;;7.23;100.00
73651;BME280;61944;52.538;6.108;2024-03-02T07:05:57;99971.81;;;7.11;100.00
73651;BME280;61944;52.538;6.108;2024-03-02T07:08:22;99979.59;;;6.98;100.00
73651;BME280;61944;52.538;6.108;2024-03-02T07:10:47;99988.81;;;7.06;100.00
73651;BME280;61944;52.538;6.108;2024-03-02T07:13:13;99987.72;;;7.10;100.00
73651;BME280;61944;52.538;6.108;2024-03-02T07:15:38;99988.44;;;7.07;100.00
73651;BME280;61944;52.538;6.108;2024-03-02T07:18:22;99981.28;;;7.06;100.00
73651;BME280;61944;52.538;6.108;2024-03-02T07:20:47;99982.88;;;7.07;100.00
73651;BME280;61944;52.538;6.108;2024-03-02T07:23:14;99974.44;;;7.00;100.00
73651;BME280;61944;52.538;6.108;2024-03-02T07:25:39;99985.31;;;7.12;100.00
73651;BME280;61944;52.538;6.108;2024-03-02T07:28:05;99989.31;;;7.11;100.00
73651;BME280;61944;52.538;6.108;2024-03-02T07:30:32;99982.88;;;7.07;100.00
73651;BME280;61944;52.538;6.108;2024-03-02T07:32:57;99979.53;;;7.25;100.00
73651;BME280;61944;52.538;6.108;2024-03-02T07:35:23;99996.72;;;7.30;100.00
73651;BME280;61944;52.538;6.108;2024-03-02T07:37:53;99994.94;;;7.15;100.00
73651;BME280;61944;52.538;6.108;2024-03-02T07:40:18;99996.44;;;7.09;100.00
73651;BME280;61944;52.538;6.108;2024-03-02T07:42:43;99994.44;;;7.09;100.00
73651;BME280;61944;52.538;6.108;2024-03-02T07:45:10;100014.88;;;7.21;100.00
73651;BME280;61944;52.538;6.108;2024-03-02T07:47:36;100018.84;;;7.20;100.00
73651;BME280;61944;52.538;6.108;2024-03-02T07:50:02;100025.13;;;7.17;100.00
73651;BME280;61944;52.538;6.108;2024-03-02T07:52:28;100032.38;;;7.21;100.00
73651;BME280;61944;52.538;6.108;2024-03-02T07:54:53;100021.28;;;7.25;100.00
73651;BME280;61944;52.538;6.108;2024-03-02T07:57:19;100031.69;;;7.28;100.00
73651;BME280;61944;52.538;6.108;2024-03-02T07:59:44;100033.34;;;7.32;100.00
73651;BME280;61944;52.538;6.108;2024-03-02T08:02:10;100035.75;;;7.34;100.00
73651;BME280;61944;52.538;6.108;2024-03-02T08:04:36;100034.41;;;7.24;100.00
73651;BME280;61944;52.538;6.108;2024-03-02T08:07:02;100030.91;;;7.31;100.00
73651;BME280;61944;52.538;6.108;2024-03-02T08:09:28;100038.03;;;7.28;100.00
73651;BME280;61944;52.538;6.108;2024-03-02T08:11:53;100038.84;;;7.29;100.00
73651;BME280;61944;52.538;6.108;2024-03-02T08:14:18;100045.75;;;7.39;100.00
73651;BME280;61944;52.538;6.108;2024-03-02T08:16:44;100037.41;;;7.39;100.00
73651;BME280;61944;52.538;6.108;2024-03-02T08:19:10;100045.69;;;7.35;100.00
73651;BME280;61944;52.538;6.108;2024-03-02T08:21:35;100040.97;;;7.39;100.00
73651;BME280;61944;52.538;6.108;2024-03-02T08:24:02;100040.97;;;7.39;100.00
73651;BME280;61944;52.538;6.108;2024-03-02T08:26:28;100044.31;;;7.48;100.00
73651;BME280;61944;52.538;6.108;2024-03-02T08:28:57;100046.22;;;7.44;100.00
73651;BME280;61944;52.538;6.108;2024-03-02T08:31:23;100041.53;;;7.52;100.00
73651;BME280;61944;52.538;6.108;2024-03-02T08:33:48;100045.53;;;7.54;100.00
73651;BME280;61944;52.538;6.108;2024-03-02T08:36:13;100046.81;;;7.61;100.00
73651;BME280;61944;52.538;6.108;2024-03-02T08:38:39;100044.03;;;7.61;100.00
73651;BME280;61944;52.538;6.108;2024-03-02T08:41:05;100044.03;;;7.61;100.00
73651;BME280;61944;52.538;6.108;2024-03-02T08:43:32;100036.97;;;7.67;100.00
73651;BME280;61944;52.538;6.108;2024-03-02T08:45:58;100045.75;;;7.69;100.00
73651;BME280;61944;52.538;6.108;2024-03-02T08:48:23;100035.81;;;7.71;100.00
73651;BME280;61944;52.538;6.108;2024-03-02T08:50:48;100043.47;;;7.78;100.00
73651;BME280;61944;52.538;6.108;2024-03-02T08:53:13;100038.91;;;7.97;100.00
73651;BME280;61944;52.538;6.108;2024-03-02T08:55:44;100044.47;;;7.97;100.00
73651;BME280;61944;52.538;6.108;2024-03-02T08:58:09;100044.16;;;8.02;100.00
73651;BME280;61944;52.538;6.108;2024-03-02T09:00:34;100035.78;;;8.02;100.00
73651;BME280;61944;52.538;6.108;2024-03-02T09:03:00;100043.72;;;8.00;100.00
73651;BME280;61944;52.538;6.108;2024-03-02T09:05:25;100040.69;;;8.12;100.00
73651;BME280;61944;52.538;6.108;2024-03-02T09:07:51;100051.91;;;8.19;100.00
73651;BME280;61944;52.538;6.108;2024-03-02T09:10:16;100046.38;;;8.26;100.00
73651;BME280;61944;52.538;6.108;2024-03-02T09:12:42;100051.22;;;8.29;100.00
73651;BME280;61944;52.538;6.108;2024-03-02T09:15:08;100055.16;;;8.28;100.00
73651;BME280;61944;52.538;6.108;2024-03-02T09:17:33;100059.22;;;8.34;100.00
73651;BME280;61944;52.538;6.108;2024-03-02T09:19:59;100048.91;;;8.39;100.00
73651;BME280;61944;52.538;6.108;2024-03-02T09:22:24;100062.13;;;8.45;100.00
73651;BME280;61944;52.538;6.108;2024-03-02T09:24:50;100062.22;;;8.52;100.00
73651;BME280;61944;52.538;6.108;2024-03-02T09:27:15;100057.50;;;8.57;100.00
73651;BME280;61944;52.538;6.108;2024-03-02T09:29:40;100068.28;;;8.58;100.00
73651;BME280;61944;52.538;6.108;2024-03-02T09:32:07;100064.31;;;8.63;100.00
73651;BME280;61944;52.538;6.108;2024-03-02T09:34:32;100053.22;;;8.70;100.00
73651;BME280;61944;52.538;6.108;2024-03-02T09:36:57;100043.69;;;8.74;100.00
73651;BME280;61944;52.538;6.108;2024-03-02T09:39:23;100054.88;;;8.78;100.00
73651;BME280;61944;52.538;6.108;2024-03-02T09:41:50;100055.75;;;8.89;100.00
73651;BME280;61944;52.538;6.108;2024-03-02T09:44:16;100046.41;;;9.15;100.00
73651;BME280;61944;52.538;6.108;2024-03-02T09:46:41;100055.28;;;9.32;100.00
73651;BME280;61944;52.538;6.108;2024-03-02T09:49:09;100051.78;;;9.49;100.00
73651;BME280;61944;52.538;6.108;2024-03-02T09:51:36;100056.31;;;9.09;100.00
73651;BME280;61944;52.538;6.108;2024-03-02T09:54:02;100059.88;;;9.06;100.00
73651;BME280;61944;52.538;6.108;2024-03-02T09:56:27;100055.50;;;9.05;100.00
73651;BME280;61944;52.538;6.108;2024-03-02T09:58:53;100062.66;;;9.06;100.00
73651;BME280;61944;52.538;6.108;2024-03-02T10:01:18;100047.94;;;9.09;100.00
73651;BME280;61944;52.538;6.108;2024-03-02T10:03:44;100061.56;;;9.18;100.00
73651;BME280;61944;52.538;6.108;2024-03-02T10:06:24;100061.94;;;9.16;100.00
73651;BME280;61944;52.538;6.108;2024-03-02T10:08:50;100063.25;;;9.30;100.00
73651;BME280;61944;52.538;6.108;2024-03-02T10:14:06;100068.84;;;9.30;100.00
73651;BME280;61944;52.538;6.108;2024-03-02T10:16:40;100063.25;;;9.30;100.00
73651;BME280;61944;52.538;6.108;2024-03-02T10:19:23;100057.72;;;9.44;100.00
73651;BME280;61944;52.538;6.108;2024-03-02T10:21:50;100066.56;;;9.53;100.00
73651;BME280;61944;52.538;6.108;2024-03-02T10:24:21;100064.53;;;9.50;100.00
73651;BME280;61944;52.538;6.108;2024-03-02T10:26:48;100069.78;;;9.55;100.00
73651;BME280;61944;52.538;6.108;2024-03-02T10:29:13;100065.03;;;9.67;100.00
73651;BME280;61944;52.538;6.108;2024-03-02T10:31:43;100076.59;;;9.62;100.00
73651;BME280;61944;52.538;6.108;2024-03-02T10:34:10;100067.41;;;9.65;100.00
73651;BME280;61944;52.538;6.108;2024-03-02T10:36:36;100075.81;;;9.65;100.00
73651;BME280;61944;52.538;6.108;2024-03-02T10:39:06;100069.44;;;9.71;100.00
73651;BME280;61944;52.538;6.108;2024-03-02T10:41:33;100063.50;;;9.76;100.00
73651;BME280;61944;52.538;6.108;2024-03-02T10:44:02;100059.19;;;9.93;100.00
73651;BME280;61944;52.538;6.108;2024-03-02T10:46:28;100063.22;;;10.10;100.00
73651;BME280;61944;52.538;6.108;2024-03-02T10:48:58;100055.63;;;10.04;100.00
73651;BME280;61944;52.538;6.108;2024-03-02T10:51:25;100057.63;;;10.07;100.00
73651;BME280;61944;52.538;6.108;2024-03-02T10:53:52;100060.41;;;10.07;100.00
73651;BME280;61944;52.538;6.108;2024-03-02T10:56:21;100062.38;;;9.99;100.00
73651;BME280;61944;52.538;6.108;2024-03-02T10:58:57;100070.78;;;10.03;100.00
73651;BME280;61944;52.538;6.108;2024-03-02T11:01:26;100065.22;;;10.10;100.00
73651;BME280;61944;52.538;6.108;2024-03-02T11:03:52;100060.41;;;10.07;100.00
73651;BME280;61944;52.538;6.108;2024-03-02T11:06:19;100059.25;;;10.26;100.00
73651;BME280;61944;52.538;6.108;2024-03-02T11:08:47;100064.91;;;10.29;100.00
73651;BME280;61944;52.538;6.108;2024-03-02T11:11:19;100066.94;;;10.54;100.00
73651;BME280;61944;52.538;6.108;2024-03-02T11:13:49;100069.34;;;10.55;100.00
73651;BME280;61944;52.538;6.108;2024-03-02T11:16:30;100066.53;;;10.52;100.00
73651;BME280;61944;52.538;6.108;2024-03-02T11:19:00;100061.34;;;10.40;100.00
73651;BME280;61944;52.538;6.108;2024-03-02T11:21:26;100057.75;;;10.64;100.00
73651;BME280;61944;52.538;6.108;2024-03-02T11:23:52;100052.56;;;10.66;100.00
73651;BME280;61944;52.538;6.108;2024-03-02T11:26:19;100052.56;;;10.66;100.00
73651;BME280;61944;52.538;6.108;2024-03-02T11:28:44;100057.38;;;10.66;100.00
73651;BME280;61944;52.538;6.108;2024-03-02T11:31:15;100057.38;;;11.19;100.00
73651;BME280;61944;52.538;6.108;2024-03-02T11:33:41;100059.75;;;11.21;100.00
73651;BME280;61944;52.538;6.108;2024-03-02T11:36:07;100064.94;;;11.23;100.00
73651;BME280;61944;52.538;6.108;2024-03-02T11:38:34;100060.53;;;11.36;100.00
73651;BME280;61944;52.538;6.108;2024-03-02T11:41:01;100061.75;;;11.35;100.00
73651;BME280;61944;52.538;6.108;2024-03-02T11:43:28;100054.97;;;11.22;100.00
73651;BME280;61944;52.538;6.108;2024-03-02T11:45:58;100055.75;;;11.36;100.00
73651;BME280;61944;52.538;6.108;2024-03-02T11:48:25;100051.25;;;11.57;100.00
73651;BME280;61944;52.538;6.108;2024-03-02T11:50:51;100056.44;;;11.73;100.00
73651;BME280;61944;52.538;6.108;2024-03-02T11:53:17;100046.72;;;11.99;100.00
73651;BME280;61944;52.538;6.108;2024-03-02T11:55:44;100050.06;;;11.54;100.00
73651;BME280;61944;52.538;6.108;2024-03-02T11:58:12;100050.69;;;12.09;100.00
73651;BME280;61944;52.538;6.108;2024-03-02T12:00:38;100049.06;;;12.11;100.00
73651;BME280;61944;52.538;6.108;2024-03-02T12:03:06;100046.34;;;11.97;100.00
73651;BME280;61944;52.538;6.108;2024-03-02T12:05:32;100033.94;;;11.91;100.00
73651;BME280;61944;52.538;6.108;2024-03-02T12:07:59;100037.16;;;11.82;100.00
73651;BME280;61944;52.538;6.108;2024-03-02T12:10:25;100037.63;;;11.59;100.00
73651;BME280;61944;52.538;6.108;2024-03-02T12:13:04;100038.00;;;11.72;100.00
73651;BME280;61944;52.538;6.108;2024-03-02T12:15:34;100029.16;;;11.91;100.00
73651;BME280;61944;52.538;6.108;2024-03-02T12:18:01;100038.75;;;11.94;100.00
73651;BME280;61944;52.538;6.108;2024-03-02T12:20:28;100036.16;;;12.28;100.00
73651;BME280;61944;52.538;6.108;2024-03-02T12:22:55;100032.25;;;12.08;100.00
73651;BME280;61944;52.538;6.108;2024-03-02T12:25:23;100037.00;;;12.18;100.00
73651;BME280;61944;52.538;6.108;2024-03-02T12:27:51;100030.22;;;12.12;100.00
73651;BME280;61944;52.538;6.108;2024-03-02T12:30:17;100016.09;;;12.33;100.00
73651;BME280;61944;52.538;6.108;2024-03-02T12:32:44;100029.69;;;12.35;100.00
73651;BME280;61944;52.538;6.108;2024-03-02T12:35:10;100031.31;;;12.32;100.00
73651;BME280;61944;52.538;6.108;2024-03-02T12:37:48;100026.41;;;12.44;100.00
73651;BME280;61944;52.538;6.108;2024-03-02T12:40:16;100015.34;;;12.26;100.00
73651;BME280;61944;52.538;6.108;2024-03-02T12:42:44;100016.06;;;12.37;100.00
73651;BME280;61944;52.538;6.108;2024-03-02T12:45:11;100014.31;;;12.54;100.00
73651;BME280;61944;52.538;6.108;2024-03-02T12:47:36;100021.72;;;12.33;100.00
73651;BME280;61944;52.538;6.108;2024-03-02T12:50:03;100019.72;;;12.30;100.00
73651;BME280;61944;52.538;6.108;2024-03-02T12:52:29;100024.53;;;12.26;100.00
73651;BME280;61944;52.538;6.108;2024-03-02T12:54:55;100024.53;;;12.30;100.00
73651;BME280;61944;52.538;6.108;2024-03-02T12:57:26;100021.00;;;12.15;100.00